Time;durP1;ratioP1;P1;durP2;ratioP2;P2;SDS_P1;SDS_P2;PMS_P1;PMS_P2;Temp;Humidity;BMP_temperature;BMP_pressure;BME280_temperature;BME280_humidity;BME280_pressure;Samples;Min_cycle;Max_cycle;Signal;HPM_P1;HPM_P2
2023/07/27 07:10:16;;;;;;;7.30;4.80;;;;;;;25.97;100.00;99390.70;107361;1292;557924;-61
2023/07/27 07:12:41;;;;;;;7.30;5.20;;;;;;;27.66;100.00;99387.38;107763;1290;21996;-69
2023/07/27 07:15:08;;;;;;;7.20;5.30;;;;;;;28.02;100.00;99396.17;107687;1294;24127;-61
2023/07/27 07:17:33;;;;;;;8.40;5.40;;;;;;;28.16;100.00;99393.95;107710;1290;22008;-69
2023/07/27 07:19:59;;;;;;;6.80;5.30;;;;;;;28.19;100.00;99378.86;107650;1294;22031;-69
2023/07/27 07:22:25;;;;;;;8.70;5.20;;;;;;;28.20;100.00;99374.05;107548;1292;184038;-60
2023/07/27 07:24:50;;;;;;;8.30;5.30;;;;;;;28.19;99.62;99380.66;107867;1289;21990;-61
2023/07/27 07:27:16;;;;;;;8.10;5.70;;;;;;;28.20;98.56;99383.67;107836;1292;21997;-60
2023/07/27 07:29:41;;;;;;;7.70;4.80;;;;;;;28.30;99.77;99389.83;107844;1283;21999;-68
2023/07/27 07:32:07;;;;;;;8.70;6.70;;;;;;;28.46;99.89;99401.30;107742;1286;21988;-60
2023/07/27 07:34:33;;;;;;;9.50;6.30;;;;;;;28.63;99.26;99413.48;108126;1287;21991;-60
2023/07/27 07:37:00;;;;;;;8.40;6.30;;;;;;;28.76;97.27;99417.20;108103;1283;21988;-68
2023/07/27 07:39:26;;;;;;;6.10;5.20;;;;;;;28.85;95.23;99414.59;108169;1287;23729;-66
2023/07/27 07:41:52;;;;;;;7.20;5.30;;;;;;;28.96;95.63;99413.05;108091;1287;21998;-60
2023/07/27 07:44:18;;;;;;;6.90;5.90;;;;;;;29.15;94.72;99409.94;108116;1284;22243;-59
2023/07/27 07:46:43;;;;;;;7.20;5.50;;;;;;;29.30;92.40;99403.06;108197;1278;21997;-68
2023/07/27 07:49:09;;;;;;;7.80;5.40;;;;;;;29.32;89.07;99394.90;108203;1278;22001;-60
2023/07/27 07:51:34;;;;;;;8.30;6.20;;;;;;;29.25;86.61;99394.54;108134;1288;22003;-60
2023/07/27 07:54:00;;;;;;;7.30;5.50;;;;;;;29.22;86.96;99399.98;108234;1284;22033;-60
2023/07/27 07:56:29;;;;;;;8.60;5.10;;;;;;;29.24;87.96;99403.70;108060;1288;23069;-67
2023/07/27 07:58:54;;;;;;;7.80;5.10;;;;;;;29.25;86.23;99411.58;108222;1284;22156;-69
2023/07/27 08:01:20;;;;;;;17.40;5.90;;;;;;;29.27;85.74;99418.59;108126;1278;21997;-71
2023/07/27 08:03:45;;;;;;;23.20;6.70;;;;;;;29.26;83.94;99415.61;108078;1287;21989;-69
2023/07/27 08:06:11;;;;;;;55.40;10.00;;;;;;;29.25;83.32;99415.05;108089;1286;21989;-61
2023/07/27 08:08:37;;;;;;;10.50;6.60;;;;;;;29.18;82.03;99418.11;108074;1281;21983;-69
2023/07/27 08:11:03;;;;;;;7.40;5.40;;;;;;;29.19;83.15;99424.48;108055;1287;21993;-71
2023/07/27 08:13:30;;;;;;;6.50;4.90;;;;;;;29.23;83.33;99438.83;108046;1288;21992;-71
2023/07/27 08:15:55;;;;;;;8.30;5.30;;;;;;;29.27;82.77;99451.61;108054;1287;21981;-60
2023/07/27 08:18:22;;;;;;;8.50;5.20;;;;;;;29.31;81.85;99454.98;108053;1287;21987;-71
2023/07/27 08:21:01;;;;;;;8.60;5.60;;;;;;;29.32;80.99;99454.34;108051;1289;22000;-66
2023/07/27 08:23:28;;;;;;;7.80;7.00;;;;;;;29.34;81.10;99451.98;108036;1277;22030;-61
2023/07/27 08:25:57;;;;;;;8.10;5.40;;;;;;;29.37;81.56;99449.13;108052;1284;21996;-61
2023/07/27 08:28:23;;;;;;;6.70;5.30;;;;;;;29.42;81.17;99448.45;108071;1277;21989;-70
2023/07/27 08:30:48;;;;;;;8.40;5.60;;;;;;;29.47;81.45;99451.34;108044;1288;21988;-71
2023/07/27 08:33:14;;;;;;;7.20;5.50;;;;;;;29.55;80.91;99454.17;108060;1288;21990;-71
2023/07/27 08:35:40;;;;;;;6.70;5.80;;;;;;;29.61;79.95;99467.24;108048;1283;21991;-61
2023/07/27 08:38:06;;;;;;;6.50;5.80;;;;;;;29.63;79.21;99470.48;108057;1288;21994;-61
2023/07/27 08:40:31;;;;;;;7.10;6.10;;;;;;;29.63;78.39;99476.39;108037;1281;21998;-72
2023/07/27 08:42:57;;;;;;;8.20;5.90;;;;;;;29.65;77.65;99481.48;108068;1283;22029;-72
2023/07/27 08:45:23;;;;;;;8.00;5.90;;;;;;;29.67;77.81;99489.55;108081;1287;22021;-62
2023/07/27 08:47:49;;;;;;;5.90;5.20;;;;;;;29.67;77.35;99489.52;108008;1289;21987;-61
2023/07/27 08:50:15;;;;;;;7.30;5.50;;;;;;;29.72;77.77;99489.98;108028;1277;22053;-61
2023/07/27 08:52:41;;;;;;;7.30;5.90;;;;;;;29.75;77.53;99494.46;108476;1289;22470;-62
2023/07/27 08:55:07;;;;;;;7.60;5.90;;;;;;;29.79;76.85;99502.04;108041;1289;22050;-61
2023/07/27 08:57:33;;;;;;;7.00;5.90;;;;;;;29.80;75.39;99501.15;108004;1277;21996;-72
2023/07/27 08:59:58;;;;;;;9.40;6.00;;;;;;;29.74;74.98;99504.53;107996;1287;21992;-61
2023/07/27 09:02:24;;;;;;;9.80;7.10;;;;;;;29.73;75.53;99504.67;107979;1289;21984;-75
2023/07/27 09:04:49;;;;;;;21.90;7.70;;;;;;;29.72;75.67;99510.02;107964;1289;21996;-61
2023/07/27 09:07:15;;;;;;;8.10;7.20;;;;;;;29.67;75.60;99512.88;108010;1284;21993;-73
2023/07/27 09:09:41;;;;;;;10.80;7.10;;;;;;;29.64;75.79;99513.54;107954;1289;21987;-61
2023/07/27 09:12:07;;;;;;;8.60;7.70;;;;;;;29.65;75.45;99515.84;107967;1283;22448;-73
2023/07/27 09:14:36;;;;;;;9.50;7.60;;;;;;;29.64;75.24;99519.02;108079;1288;21976;-76
2023/07/27 09:17:02;;;;;;;8.10;7.40;;;;;;;29.62;75.03;99520.68;108062;1289;21977;-61
2023/07/27 09:19:33;;;;;;;9.00;8.00;;;;;;;29.59;74.50;99520.80;108071;1289;21992;-75
2023/07/27 09:21:59;;;;;;;9.10;8.20;;;;;;;29.50;74.05;99530.56;108043;1288;21991;-64
2023/07/27 09:24:24;;;;;;;10.30;8.20;;;;;;;29.43;74.26;99523.17;108045;1283;22008;-61
2023/07/27 09:26:51;;;;;;;9.90;9.00;;;;;;;29.44;74.39;99519.05;108083;1283;21992;-74
2023/07/27 09:29:19;;;;;;;10.10;9.20;;;;;;;29.44;74.09;99515.84;108114;1284;22031;-61
2023/07/27 09:31:48;;;;;;;9.40;8.50;;;;;;;29.46;74.10;99510.73;108030;1289;21985;-62
2023/07/27 09:34:14;;;;;;;8.10;7.30;;;;;;;29.57;74.77;99502.90;108052;1289;22010;-74
2023/07/27 09:36:40;;;;;;;9.70;7.60;;;;;;;29.67;74.54;99499.71;108076;1289;21978;-62
2023/07/27 09:39:06;;;;;;;9.20;7.90;;;;;;;29.72;74.27;99491.98;107847;1289;21997;-75
2023/07/27 09:41:32;;;;;;;9.70;8.80;;;;;;;29.75;73.56;99484.60;108115;1284;21986;-62
2023/07/27 09:44:02;;;;;;;9.90;9.00;;;;;;;29.72;72.33;99487.57;108096;1288;21984;-73
2023/07/27 09:46:27;;;;;;;9.80;7.80;;;;;;;29.64;72.06;99489.45;108028;1288;22000;-61
2023/07/27 09:48:53;;;;;;;8.70;7.70;;;;;;;29.63;71.78;99488.69;108031;1277;21992;-61
2023/07/27 09:51:18;;;;;;;8.20;7.40;;;;;;;29.59;70.65;99487.19;107748;1288;22029;-61
2023/07/27 09:53:44;;;;;;;7.90;7.20;;;;;;;29.47;70.22;99484.45;108043;1288;22037;-67
2023/07/27 09:56:13;;;;;;;7.50;6.70;;;;;;;29.40;70.44;99477.23;108092;1287;22037;-61
2023/07/27 09:58:39;;;;;;;7.30;6.60;;;;;;;29.33;70.33;99482.27;107930;1288;21992;-72
2023/07/27 10:01:05;;;;;;;7.70;6.90;;;;;;;29.21;70.20;99499.95;107913;1288;22030;-61
2023/07/27 10:03:30;;;;;;;6.80;6.20;;;;;;;29.12;70.46;99523.17;108066;1279;21987;-72
2023/07/27 10:05:56;;;;;;;6.20;5.60;;;;;;;29.06;70.09;99529.50;107869;1288;21986;-72
2023/07/27 10:08:22;;;;;;;7.00;5.40;;;;;;;29.00;70.16;99526.38;108040;1288;21992;-61
2023/07/27 10:10:54;;;;;;;5.90;5.30;;;;;;;28.94;70.34;99521.16;108084;1284;21986;-69
2023/07/27 10:13:22;;;;;;;6.40;5.70;;;;;;;28.91;70.53;99519.28;108101;1288;21986;-62
2023/07/27 10:15:49;;;;;;;5.50;5.00;;;;;;;28.86;70.04;99517.31;108017;1277;21984;-61
2023/07/27 10:18:14;;;;;;;6.00;5.40;;;;;;;28.80;69.21;99511.96;108064;1284;21988;-61
2023/07/27 10:20:40;;;;;;;5.70;5.10;;;;;;;28.69;68.76;99507.26;108026;1288;22164;-73
2023/07/27 10:23:10;;;;;;;5.80;5.30;;;;;;;28.61;68.75;99504.27;107890;1288;21983;-61
2023/07/27 10:25:56;;;;;;;5.90;5.30;;;;;;;28.58;69.38;99505.81;108038;1278;21986;-72
2023/07/27 10:28:43;;;;;;;7.20;5.30;;;;;;;28.58;69.63;99502.97;108020;1286;21987;-71
2023/07/27 10:31:15;;;;;;;7.20;4.70;;;;;;;28.55;69.06;99494.05;107857;1287;21998;-60
2023/07/27 10:33:46;;;;;;;7.40;6.20;;;;;;;28.53;69.29;99490.64;108006;1288;21986;-73
2023/07/27 10:36:13;;;;;;;5.50;4.40;;;;;;;28.49;69.03;99486.23;108039;1278;21994;-71
2023/07/27 10:38:39;;;;;;;7.50;4.10;;;;;;;28.44;68.89;99485.27;107916;1284;22660;-72
2023/07/27 10:41:14;;;;;;;5.30;4.10;;;;;;;28.43;68.88;99482.48;108123;1287;21988;-61
2023/07/27 10:44:08;;;;;;;5.30;3.60;;;;;;;28.40;68.92;99478.64;108103;1281;21993;-72
2023/07/27 10:46:44;;;;;;;4.50;3.90;;;;;;;28.29;68.31;99478.08;107931;1289;21987;-62
2023/07/27 10:49:10;;;;;;;4.70;4.00;;;;;;;28.18;68.12;99477.98;109980;1289;21911;-59
2023/07/27 10:51:36;;;;;;;5.60;4.20;;;;;;;28.19;69.06;99473.93;109997;1287;22255;-59
2023/07/27 10:54:01;;;;;;;4.40;4.00;;;;;;;28.17;68.07;99460.05;109988;1289;21905;-66
2023/07/27 10:56:27;;;;;;;5.60;4.10;;;;;;;28.10;68.38;99451.30;109990;1289;21848;-60
2023/07/27 10:58:56;;;;;;;4.70;3.90;;;;;;;28.05;67.82;99452.54;108655;1289;22086;-61
2023/07/27 11:01:21;;;;;;;4.60;3.70;;;;;;;27.98;67.52;99455.19;108080;1277;23016;-70
2023/07/27 11:14:14;;;;;;;4.30;3.90;;;;;;;27.06;73.40;99462.55;108196;1277;21988;-61
2023/07/27 11:16:40;;;;;;;4.60;3.80;;;;;;;27.19;72.15;99459.52;108135;1280;21987;-60
2023/07/27 11:19:07;;;;;;;5.00;4.20;;;;;;;27.19;71.64;99454.10;108125;1285;21996;-60
2023/07/27 11:21:35;;;;;;;6.60;4.10;;;;;;;27.20;71.89;99450.44;108176;1280;21987;-70
2023/07/27 11:24:03;;;;;;;5.70;3.90;;;;;;;27.18;71.95;99443.77;108005;1283;158747;-61
2023/07/27 11:26:29;;;;;;;5.70;4.00;;;;;;;27.08;72.12;99438.95;108135;1282;24041;-60
2023/07/27 11:28:57;;;;;;;5.10;3.90;;;;;;;27.01;72.41;99438.92;108346;1280;21986;-68
2023/07/27 11:31:23;;;;;;;7.60;3.80;;;;;;;26.97;73.12;99437.68;108382;1276;21984;-60
2023/07/27 11:33:48;;;;;;;5.20;3.80;;;;;;;26.90;73.88;99443.20;108395;1270;21947;-67
2023/07/27 11:36:14;;;;;;;4.70;3.50;;;;;;;26.80;73.93;99437.65;108389;1283;21983;-60
2023/07/27 11:38:39;;;;;;;6.60;3.20;;;;;;;26.69;73.85;99437.41;108333;1277;21984;-61
2023/07/27 11:41:06;;;;;;;5.90;3.80;;;;;;;26.66;74.25;99433.75;108347;1283;21980;-67
2023/07/27 11:43:31;;;;;;;9.30;3.90;;;;;;;26.59;74.74;99427.01;108333;1283;21991;-66
2023/07/27 11:45:57;;;;;;;5.80;3.30;;;;;;;26.53;75.08;99421.63;108149;1283;21994;-60
2023/07/27 11:48:27;;;;;;;5.50;3.70;;;;;;;26.43;75.87;99412.31;108318;1283;21988;-65
2023/07/27 11:51:02;;;;;;;6.70;4.10;;;;;;;26.36;75.78;99404.88;108331;1283;21989;-59
2023/07/27 11:53:28;;;;;;;8.40;3.70;;;;;;;26.30;76.03;99400.05;108211;1282;21996;-65
2023/07/27 11:55:55;;;;;;;6.30;3.30;;;;;;;26.22;76.49;99401.73;108320;1282;21998;-60
2023/07/27 11:58:26;;;;;;;3.90;2.80;;;;;;;26.12;76.59;99409.02;108296;1283;21993;-65
2023/07/27 12:00:54;;;;;;;3.90;2.90;;;;;;;26.03;76.55;99417.23;108247;1283;22451;-61
2023/07/27 12:03:20;;;;;;;5.10;2.70;;;;;;;25.92;76.33;99432.98;108288;1283;23566;-61
2023/07/27 12:05:46;;;;;;;3.00;2.70;;;;;;;25.83;76.23;99452.48;108361;1283;21998;-66
2023/07/27 12:08:18;;;;;;;6.20;3.10;;;;;;;25.77;76.58;99466.37;108279;1283;21986;-66
2023/07/27 12:10:53;;;;;;;4.90;2.40;;;;;;;25.73;76.54;99475.31;108294;1283;21987;-67
2023/07/27 12:13:21;;;;;;;8.00;2.70;;;;;;;25.71;76.39;99476.39;108315;1283;22040;-66
2023/07/27 12:15:47;;;;;;;4.40;2.50;;;;;;;25.71;76.32;99488.95;109484;1280;21925;-62
2023/07/27 12:18:12;;;;;;;3.80;2.40;;;;;;;25.69;76.52;99513.17;108978;1274;23090;-65
2023/07/27 12:20:38;;;;;;;4.10;2.60;;;;;;;25.65;76.37;99532.92;108240;1276;22023;-65
2023/07/27 12:23:04;;;;;;;6.20;2.70;;;;;;;25.61;75.96;99544.66;108056;1282;22040;-61
2023/07/27 12:25:29;;;;;;;4.50;2.40;;;;;;;25.56;76.04;99555.82;108291;1282;22024;-62
2023/07/27 12:27:55;;;;;;;3.50;2.90;;;;;;;25.50;76.41;99569.26;108282;1276;21980;-64
2023/07/27 12:30:22;;;;;;;3.70;2.70;;;;;;;25.40;76.51;99587.01;108366;1280;21983;-63
2023/07/27 12:32:48;;;;;;;4.30;2.50;;;;;;;25.31;76.49;99601.08;108331;1280;21979;-66
2023/07/27 12:35:14;;;;;;;4.70;2.80;;;;;;;25.23;76.69;99614.54;108299;1277;22018;-63
2023/07/27 12:37:39;;;;;;;6.00;3.00;;;;;;;25.16;77.11;99619.98;108297;1282;21983;-66
2023/07/27 12:40:06;;;;;;;3.00;2.30;;;;;;;25.08;77.73;99621.52;108274;1282;21981;-62
2023/07/27 12:42:31;;;;;;;5.10;2.30;;;;;;;24.99;77.94;99611.52;108322;1282;21988;-65
2023/07/27 12:44:57;;;;;;;4.80;2.20;;;;;;;24.90;78.50;99605.65;108310;1274;21986;-62
2023/07/27 12:47:23;;;;;;;5.70;2.50;;;;;;;24.84;78.12;99594.70;108300;1282;21980;-62
2023/07/27 12:49:48;;;;;;;4.70;2.40;;;;;;;24.81;79.05;99599.55;108283;1282;22025;-62
2023/07/27 12:52:14;;;;;;;5.10;2.40;;;;;;;24.76;79.10;99597.70;108337;1280;21989;-66
2023/07/27 12:54:40;;;;;;;6.60;2.30;;;;;;;24.70;80.10;99599.42;108290;1273;21983;-62
2023/07/27 12:57:06;;;;;;;5.10;2.60;;;;;;;24.61;80.83;99598.48;108296;1282;22151;-66
2023/07/27 12:59:32;;;;;;;7.00;3.00;;;;;;;24.52;80.08;99591.20;108278;1280;21988;-66
2023/07/27 13:01:57;;;;;;;6.80;2.70;;;;;;;24.47;80.22;99579.95;108344;1282;23100;-67
2023/07/27 13:04:23;;;;;;;4.40;2.60;;;;;;;24.45;81.10;99576.89;108186;1279;21989;-67
2023/07/27 13:06:48;;;;;;;4.50;2.30;;;;;;;24.47;80.62;99574.45;108335;1282;22005;-62
2023/07/27 13:09:14;;;;;;;6.50;2.80;;;;;;;24.43;80.10;99569.17;108289;1282;22011;-66
2023/07/27 13:11:40;;;;;;;8.20;2.10;;;;;;;24.40;80.31;99567.11;108333;1276;23135;-62
2023/07/27 13:14:06;;;;;;;6.20;2.30;;;;;;;24.36;81.27;99568.67;108288;1283;22044;-62
2023/07/27 13:16:33;;;;;;;8.60;2.70;;;;;;;24.36;80.77;99571.69;108277;1283;21988;-62
2023/07/27 13:18:58;;;;;;;5.00;1.80;;;;;;;24.33;81.74;99563.89;108340;1283;22099;-64
2023/07/27 13:21:26;;;;;;;4.00;1.50;;;;;;;24.27;81.92;99553.13;108292;1281;21981;-62
2023/07/27 13:23:52;;;;;;;5.20;1.70;;;;;;;24.20;82.03;99536.79;108261;1276;22020;-66
2023/07/27 13:26:18;;;;;;;6.10;1.90;;;;;;;24.14;82.50;99522.48;108281;1276;22099;-67
2023/07/27 13:28:44;;;;;;;4.30;2.00;;;;;;;24.07;82.98;99497.38;108269;1283;21993;-63
2023/07/27 13:31:14;;;;;;;2.90;1.80;;;;;;;23.98;82.92;99478.38;108265;1283;21985;-61
2023/07/27 13:33:39;;;;;;;10.20;1.90;;;;;;;23.94;83.55;99476.98;108302;1277;21536;-62
2023/07/27 13:36:05;;;;;;;2.70;1.40;;;;;;;23.93;82.78;99495.86;108272;1283;22037;-61
2023/07/27 13:38:34;;;;;;;3.60;1.50;;;;;;;23.96;82.54;99516.34;108282;1283;22020;-62
2023/07/27 13:40:59;;;;;;;7.70;1.40;;;;;;;23.99;82.46;99535.31;108281;1284;22019;-61
2023/07/27 13:43:25;;;;;;;4.80;1.30;;;;;;;24.02;82.50;99554.23;108321;1279;21984;-63
2023/07/27 13:45:51;;;;;;;2.90;1.20;;;;;;;24.05;82.19;99555.94;108408;1276;21984;-63
2023/07/27 13:48:17;;;;;;;4.50;1.10;;;;;;;24.12;82.15;99548.44;108375;1282;21984;-62
2023/07/27 13:50:42;;;;;;;5.60;1.10;;;;;;;24.19;82.37;99540.12;108393;1282;21989;-64
2023/07/27 13:53:09;;;;;;;1.50;0.80;;;;;;;24.19;82.71;99540.85;108391;1282;21980;-62
2023/07/27 13:55:35;;;;;;;2.40;1.20;;;;;;;24.22;82.29;99548.35;108374;1273;21999;-62
2023/07/27 13:58:01;;;;;;;2.50;1.20;;;;;;;24.23;82.82;99542.35;108395;1282;21978;-63
2023/07/27 14:00:27;;;;;;;3.80;1.10;;;;;;;24.21;83.29;99540.50;108397;1282;21981;-62
2023/07/27 14:02:55;;;;;;;3.50;1.20;;;;;;;24.18;83.33;99539.83;108348;1283;21991;-62
2023/07/27 14:05:20;;;;;;;2.00;1.10;;;;;;;24.17;82.58;99545.81;108251;1284;21983;-63
2023/07/27 14:07:47;;;;;;;5.50;1.40;;;;;;;24.19;83.06;99551.80;108254;1276;21980;-62
2023/07/27 14:10:13;;;;;;;2.10;1.00;;;;;;;24.23;82.81;99549.16;108287;1276;21998;-63
2023/07/27 14:12:41;;;;;;;2.00;1.00;;;;;;;24.25;83.23;99547.88;108268;1280;21978;-62
2023/07/27 14:15:07;;;;;;;2.60;0.80;;;;;;;24.25;82.81;99542.73;108278;1277;21987;-61
2023/07/27 14:17:34;;;;;;;2.90;0.80;;;;;;;24.25;83.16;99542.58;108308;1282;21987;-62
2023/07/27 14:19:59;;;;;;;2.60;0.80;;;;;;;24.26;83.17;99545.84;108335;1274;21986;-62
2023/07/27 14:22:25;;;;;;;1.60;0.70;;;;;;;24.33;83.36;99551.70;108268;1282;22012;-62
2023/07/27 14:24:51;;;;;;;2.20;1.00;;;;;;;24.36;83.72;99557.92;108279;1276;21980;-62
2023/07/27 14:27:17;;;;;;;2.70;0.80;;;;;;;24.35;83.55;99554.20;108305;1282;21992;-63
2023/07/27 14:29:42;;;;;;;2.80;0.90;;;;;;;24.34;84.00;99550.16;108348;1276;23757;-62
2023/07/27 14:32:08;;;;;;;1.40;0.70;;;;;;;24.36;83.41;99551.10;108304;1282;21979;-61
2023/07/27 14:34:34;;;;;;;1.40;0.80;;;;;;;24.37;83.62;99548.31;108257;1280;23648;-62
2023/07/27 14:37:00;;;;;;;2.20;0.70;;;;;;;24.45;83.84;99536.38;108298;1282;21989;-63
2023/07/27 14:39:25;;;;;;;3.30;0.80;;;;;;;24.50;84.10;99526.95;108284;1282;22452;-62
2023/07/27 14:41:51;;;;;;;2.30;0.60;;;;;;;24.47;84.48;99516.66;108281;1282;21993;-62
2023/07/27 14:44:16;;;;;;;2.50;0.60;;;;;;;24.52;84.28;99501.73;108266;1276;21984;-62
2023/07/27 14:46:42;;;;;;;1.40;0.60;;;;;;;24.58;84.31;99492.23;108282;1283;22454;-62
2023/07/27 14:49:07;;;;;;;2.00;0.40;;;;;;;24.61;84.40;99485.70;108258;1284;21982;-62
2023/07/27 14:51:33;;;;;;;2.70;0.60;;;;;;;24.59;83.93;99476.91;108271;1283;21992;-63
2023/07/27 14:53:59;;;;;;;2.20;0.60;;;;;;;24.59;83.43;99468.66;108304;1270;21988;-64
2023/07/27 14:56:25;;;;;;;1.50;0.40;;;;;;;24.57;83.36;99467.41;108236;1283;22802;-62
2023/07/27 14:58:51;;;;;;;2.80;0.30;;;;;;;24.51;83.36;99470.94;108253;1283;22003;-64
2023/07/27 15:01:17;;;;;;;1.30;0.40;;;;;;;24.50;83.05;99477.90;108242;1283;22003;-64
2023/07/27 15:03:43;;;;;;;1.10;0.40;;;;;;;24.48;83.02;99488.81;108351;1283;22024;-65
2023/07/27 15:06:09;;;;;;;0.40;0.30;;;;;;;24.47;83.23;99498.89;108286;1283;21996;-63
2023/07/27 15:08:34;;;;;;;3.10;0.40;;;;;;;24.46;83.30;99495.61;108262;1273;21980;-62
2023/07/27 15:11:00;;;;;;;2.40;0.40;;;;;;;24.44;82.95;99494.52;108262;1273;21993;-65
2023/07/27 15:13:25;;;;;;;3.10;0.50;;;;;;;24.39;83.13;99500.52;108261;1276;21990;-63
2023/07/27 15:15:51;;;;;;;2.90;0.70;;;;;;;24.38;82.95;99505.04;108312;1277;22077;-64
2023/07/27 15:18:17;;;;;;;1.80;0.40;;;;;;;24.38;82.88;99524.05;108322;1283;21987;-64
2023/07/27 15:20:43;;;;;;;1.80;0.40;;;;;;;24.41;82.70;99529.73;108318;1283;21988;-62
2023/07/27 15:23:11;;;;;;;3.00;0.60;;;;;;;24.44;82.66;99526.21;108237;1276;22072;-62
2023/07/27 15:25:37;;;;;;;2.60;0.40;;;;;;;24.47;82.61;99525.50;108249;1283;21984;-62
2023/07/27 15:28:04;;;;;;;1.50;0.40;;;;;;;24.45;82.46;99529.58;108239;1283;21988;-62
2023/07/27 15:30:31;;;;;;;1.50;0.70;;;;;;;24.43;82.16;99521.45;108269;1284;21993;-62
2023/07/27 15:32:58;;;;;;;4.30;1.00;;;;;;;24.44;82.41;99514.79;108281;1283;22034;-61
2023/07/27 15:35:24;;;;;;;2.30;0.60;;;;;;;24.43;82.20;99509.67;108309;1279;22001;-61
2023/07/27 15:37:50;;;;;;;1.30;0.60;;;;;;;24.43;81.99;99494.75;108221;1274;21984;-66
2023/07/27 15:40:19;;;;;;;1.20;0.40;;;;;;;24.41;82.20;99486.49;108351;1282;22020;-65
2023/07/27 15:42:44;;;;;;;1.00;0.30;;;;;;;24.40;81.93;99477.09;108354;1277;22022;-65
2023/07/27 15:45:10;;;;;;;1.80;0.90;;;;;;;24.37;81.93;99473.27;108133;1283;23475;-64
2023/07/27 15:47:36;;;;;;;1.00;0.40;;;;;;;24.33;81.87;99476.61;108031;1283;21983;-64
2023/07/27 15:50:01;;;;;;;0.50;0.30;;;;;;;24.32;81.77;99480.27;108209;1276;21987;-59
2023/07/27 15:52:27;;;;;;;2.20;0.30;;;;;;;24.32;81.45;99495.53;108216;1280;21984;-64
2023/07/27 15:54:53;;;;;;;2.10;0.40;;;;;;;24.33;81.04;99501.66;108227;1284;22000;-60
2023/07/27 15:57:18;;;;;;;0.60;0.20;;;;;;;24.35;81.26;99493.23;108209;1277;23711;-65
2023/07/27 15:59:44;;;;;;;2.20;0.40;;;;;;;24.34;81.14;99483.47;108262;1276;22080;-60
2023/07/27 16:02:10;;;;;;;0.70;0.30;;;;;;;24.32;80.99;99479.91;108269;1280;22077;-65
2023/07/27 16:04:37;;;;;;;2.30;0.30;;;;;;;24.29;80.76;99475.33;108369;1282;21985;-66
2023/07/27 16:07:02;;;;;;;4.70;0.40;;;;;;;24.23;80.54;99471.89;108340;1283;21972;-65
2023/07/27 16:09:28;;;;;;;0.70;0.30;;;;;;;24.22;80.57;99474.12;108317;1277;22018;-66
2023/07/27 16:11:53;;;;;;;1.00;0.30;;;;;;;24.22;80.66;99480.38;108283;1276;21982;-60
2023/07/27 16:14:19;;;;;;;3.00;0.50;;;;;;;24.24;80.81;99486.64;108317;1277;24033;-66
2023/07/27 16:16:45;;;;;;;1.80;0.50;;;;;;;24.23;80.74;99493.39;108273;1284;21950;-67
2023/07/27 16:19:11;;;;;;;3.00;0.50;;;;;;;24.25;80.55;99491.41;108330;1283;21986;-65
2023/07/27 16:21:37;;;;;;;0.70;0.30;;;;;;;24.29;80.35;99488.45;108279;1283;21990;-66
2023/07/27 16:24:03;;;;;;;2.10;0.40;;;;;;;24.31;80.24;99489.14;108262;1283;21968;-60
2023/07/27 16:26:29;;;;;;;4.20;1.10;;;;;;;24.33;80.27;99494.14;108313;1276;21993;-67
2023/07/27 16:28:55;;;;;;;3.20;0.80;;;;;;;24.36;80.02;99498.40;108333;1283;22053;-66
2023/07/27 16:31:20;;;;;;;0.60;0.40;;;;;;;24.37;79.72;99500.66;108286;1283;21993;-66
2023/07/27 16:33:46;;;;;;;1.30;0.50;;;;;;;24.34;79.53;99505.17;108243;1283;21982;-61
2023/07/27 16:36:15;;;;;;;2.40;0.50;;;;;;;24.32;79.10;99502.33;108289;1283;21984;-66
2023/07/27 16:38:40;;;;;;;2.00;0.40;;;;;;;24.29;79.19;99504.00;108297;1283;21948;-65
2023/07/27 16:41:09;;;;;;;2.10;0.40;;;;;;;24.27;79.04;99500.81;108321;1283;21981;-65
2023/07/27 16:43:36;;;;;;;4.50;0.70;;;;;;;24.23;78.98;99498.08;108414;1276;21987;-59
2023/07/27 16:46:02;;;;;;;0.80;0.40;;;;;;;24.22;78.66;99499.96;108295;1283;21986;-66
2023/07/27 16:48:27;;;;;;;1.80;0.60;;;;;;;24.19;78.42;99503.36;108339;1276;21989;-60
2023/07/27 16:50:54;;;;;;;0.70;0.50;;;;;;;24.13;78.11;99504.06;108259;1273;21983;-61
2023/07/27 16:53:20;;;;;;;0.70;0.30;;;;;;;24.08;78.09;99506.45;108273;1283;21980;-59
2023/07/27 16:55:45;;;;;;;1.30;0.60;;;;;;;24.03;78.19;99511.66;108264;1283;21998;-60
2023/07/27 16:58:11;;;;;;;0.60;0.30;;;;;;;24.04;78.42;99520.02;108287;1283;22020;-66
2023/07/27 17:00:36;;;;;;;2.70;0.50;;;;;;;24.03;77.93;99519.43;108274;1276;21999;-61
2023/07/27 17:03:03;;;;;;;1.70;0.30;;;;;;;24.01;77.54;99518.86;108276;1276;21981;-67
2023/07/27 17:05:29;;;;;;;1.90;0.50;;;;;;;23.92;77.03;99518.98;108312;1277;21990;-60
2023/07/27 17:07:54;;;;;;;1.00;0.50;;;;;;;23.89;77.00;99518.58;108297;1280;22446;-60
2023/07/27 17:10:20;;;;;;;1.10;0.40;;;;;;;23.87;76.63;99515.83;108297;1282;22020;-68
2023/07/27 17:12:45;;;;;;;1.00;0.40;;;;;;;23.86;76.49;99517.66;108269;1277;22013;-69
2023/07/27 17:15:11;;;;;;;1.70;0.40;;;;;;;23.84;76.27;99516.27;108242;1277;21991;-68
2023/07/27 17:17:37;;;;;;;1.20;0.50;;;;;;;23.80;76.20;99518.02;108258;1282;21981;-68
2023/07/27 17:20:03;;;;;;;1.90;0.40;;;;;;;23.76;75.98;99525.66;108263;1277;21980;-68
2023/07/27 17:22:29;;;;;;;1.70;0.50;;;;;;;23.71;75.95;99535.02;108344;1280;21981;-68
2023/07/27 17:24:54;;;;;;;1.10;0.30;;;;;;;23.67;75.80;99542.00;108241;1282;21978;-60
2023/07/27 17:27:20;;;;;;;0.70;0.40;;;;;;;23.63;75.68;99542.50;108261;1273;22082;-60
2023/07/27 17:29:46;;;;;;;2.50;0.40;;;;;;;23.60;75.55;99544.11;108315;1281;21987;-60
2023/07/27 17:32:12;;;;;;;3.70;0.50;;;;;;;23.58;75.36;99551.78;108322;1277;22021;-68
2023/07/27 17:34:38;;;;;;;3.60;0.60;;;;;;;23.59;75.02;99563.37;108352;1273;21997;-60
2023/07/27 17:37:04;;;;;;;2.10;0.50;;;;;;;23.60;75.08;99569.02;108283;1280;21974;-68
2023/07/27 17:39:30;;;;;;;1.00;0.50;;;;;;;23.59;74.94;99573.73;108280;1277;21994;-68
2023/07/27 17:41:56;;;;;;;2.70;0.60;;;;;;;23.60;74.76;99574.05;108336;1277;22043;-60
2023/07/27 17:44:21;;;;;;;1.50;0.60;;;;;;;23.61;74.93;99566.40;108422;1280;23401;-60
2023/07/27 17:46:47;;;;;;;1.00;0.50;;;;;;;23.62;74.79;99560.45;108350;1270;21984;-68
2023/07/27 17:49:13;;;;;;;1.10;0.70;;;;;;;23.59;74.88;99557.61;108344;1276;21983;-60
2023/07/27 17:51:38;;;;;;;0.50;0.50;;;;;;;23.60;74.97;99554.33;108291;1281;21983;-59
2023/07/27 17:54:04;;;;;;;1.40;0.50;;;;;;;23.59;75.14;99550.44;108321;1277;21991;-60
2023/07/27 17:56:29;;;;;;;1.30;0.50;;;;;;;23.59;75.22;99543.68;108299;1282;21984;-60
2023/07/27 17:58:55;;;;;;;1.80;0.90;;;;;;;23.56;75.24;99546.78;108312;1282;21993;-68
2023/07/27 18:01:21;;;;;;;2.40;0.40;;;;;;;23.54;75.25;99546.27;108273;1280;21986;-59
2023/07/27 18:03:49;;;;;;;5.50;0.70;;;;;;;23.52;75.52;99548.88;108263;1277;21989;-69
2023/07/27 18:06:14;;;;;;;4.10;0.50;;;;;;;23.53;75.43;99556.17;108251;1282;21984;-59
2023/07/27 18:08:40;;;;;;;1.60;0.40;;;;;;;23.53;75.55;99559.77;108253;1277;21985;-69
2023/07/27 18:11:12;;;;;;;1.70;0.40;;;;;;;23.53;75.56;99569.27;108260;1276;21983;-60
2023/07/27 18:13:40;;;;;;;0.60;0.50;;;;;;;23.50;75.58;99584.55;108273;1280;21978;-69
2023/07/27 18:16:13;;;;;;;1.80;0.50;;;;;;;23.49;75.45;99600.02;108336;1276;22096;-68
2023/07/27 18:18:39;;;;;;;3.30;0.70;;;;;;;23.49;75.55;99609.67;108389;1280;21989;-68
2023/07/27 18:21:11;;;;;;;1.20;0.50;;;;;;;23.51;75.48;99613.97;108347;1277;21978;-65
2023/07/27 18:23:37;;;;;;;2.20;0.60;;;;;;;23.53;75.42;99610.20;108389;1282;22021;-60
2023/07/27 18:26:03;;;;;;;0.70;0.50;;;;;;;23.53;75.18;99608.60;108389;1276;21978;-68
2023/07/27 18:28:30;;;;;;;2.00;0.50;;;;;;;23.52;74.97;99607.59;108363;1277;21999;-68
2023/07/27 18:31:05;;;;;;;1.60;0.60;;;;;;;23.49;74.87;99607.86;108429;1277;21987;-68
2023/07/27 18:33:32;;;;;;;3.60;0.60;;;;;;;23.44;74.85;99617.17;108379;1281;21979;-68
2023/07/27 18:35:57;;;;;;;1.00;0.50;;;;;;;23.42;74.82;99626.62;108388;1277;21980;-67
2023/07/27 18:38:23;;;;;;;1.70;0.70;;;;;;;23.37;74.84;99630.06;108315;1280;23043;-60
2023/07/27 18:40:48;;;;;;;2.10;0.70;;;;;;;23.35;74.55;99638.68;108271;1282;21993;-60